Atlanta, Illinois
Current Conditions -  °F | °C
As of 1:55 PM on Wednesday 26 Nov 2014 (Local Time) from KAAA Reporting Station
Light Snow Light Snow  
Wind Chill: 21°   Ceiling: 900
Heat Index: 31°   Visibility: 1.7mi
Dew Point: 28°   Wind: 14mph
Humidity: 88%   Direction: 90°E
Pressure: 30.06"   Gusts: NA
Location:  40.26°N, 89.23°W
Report Text: KAAA 261955Z AUTO 09012KT 1 3/4SM -SN OVC009 M01/M02 A3006 RMK AO2 T10061024
Loading
Personal Weather Stations






























Interactive Weather Map New forecast layout! Learn more

10-Day Weather Forecast

Advertisements
Track Severe Weather on mobile